Time;durP1;ratioP1;P1;durP2;ratioP2;P2;SDS_P1;SDS_P2;PMS_P1;PMS_P2;Temp;Humidity;BMP_temperature;BMP_pressure;BME280_temperature;BME280_humidity;BME280_pressure;Samples;Min_cycle;Max_cycle;Signal;HPM_P1;HPM_P2
2023/04/16 00:02:05;;;;;;;6.73;4.80;;;;;;;;;;5087173;28;20460;-65
2023/04/16 00:04:32;;;;;;;5.67;3.67;;;;;;;;;;5088369;28;20452;-65
2023/04/16 00:06:59;;;;;;;5.00;3.23;;;;;;;;;;5091450;28;20738;-68
2023/04/16 00:09:27;;;;;;;3.97;2.67;;;;;;;;;;5092591;28;20571;-65
2023/04/16 00:11:54;;;;;;;8.23;4.80;;;;;;;;;;5091310;28;20941;-65
2023/04/16 00:14:21;;;;;;;5.47;4.43;;;;;;;;;;5092297;28;20531;-65
2023/04/16 00:16:48;;;;;;;5.47;3.70;;;;;;;;;;5091548;28;20452;-65
2023/04/16 00:19:16;;;;;;;6.07;3.23;;;;;;;;;;5092399;28;20470;-66
2023/04/16 00:21:44;;;;;;;5.07;3.30;;;;;;;;;;5091070;28;20491;-65
2023/04/16 00:24:11;;;;;;;5.73;3.63;;;;;;;;;;5091972;28;20606;-66
2023/04/16 00:26:39;;;;;;;6.83;4.70;;;;;;;;;;5092436;28;20447;-65
2023/04/16 00:29:07;;;;;;;6.70;4.07;;;;;;;;;;5092330;28;20448;-65
2023/04/16 00:31:34;;;;;;;6.53;4.40;;;;;;;;;;5091591;28;20516;-66
2023/04/16 00:34:01;;;;;;;8.77;4.50;;;;;;;;;;5091515;28;20497;-66
2023/04/16 00:36:30;;;;;;;4.20;3.57;;;;;;;;;;5091545;28;20448;-65
2023/04/16 00:38:57;;;;;;;5.03;3.97;;;;;;;;;;5091305;28;20451;-66
2023/04/16 00:41:25;;;;;;;5.30;3.40;;;;;;;;;;5091653;28;20824;-65
2023/04/16 00:43:52;;;;;;;6.73;3.03;;;;;;;;;;5091374;28;20896;-66
2023/04/16 00:46:19;;;;;;;4.67;3.33;;;;;;;;;;5091434;28;20455;-65
2023/04/16 00:48:47;;;;;;;5.03;3.80;;;;;;;;;;5089525;28;20448;-65
2023/04/16 00:51:14;;;;;;;6.50;3.80;;;;;;;;;;5089068;28;20982;-66
2023/04/16 00:53:43;;;;;;;5.07;3.50;;;;;;;;;;5091141;28;20455;-65
2023/04/16 00:56:11;;;;;;;5.23;3.67;;;;;;;;;;5091275;28;20448;-65
2023/04/16 00:58:38;;;;;;;5.13;3.90;;;;;;;;;;5091337;28;20825;-65
2023/04/16 01:01:06;;;;;;;6.20;3.33;;;;;;;;;;5091446;28;20547;-65
2023/04/16 01:03:38;;;;;;;5.20;4.13;;;;;;;;;;5091429;28;20522;-65
2023/04/16 01:06:05;;;;;;;4.93;4.00;;;;;;;;;;5091583;28;20524;-65
2023/04/16 01:08:33;;;;;;;6.37;3.00;;;;;;;;;;5090863;28;20447;-65
2023/04/16 01:11:01;;;;;;;5.90;3.93;;;;;;;;;;5090158;28;21121;-66
2023/04/16 01:13:28;;;;;;;6.70;3.93;;;;;;;;;;5091043;28;20551;-66
2023/04/16 01:15:55;;;;;;;5.30;3.40;;;;;;;;;;5089860;28;20456;-65
2023/04/16 01:18:23;;;;;;;5.23;3.10;;;;;;;;;;5088104;28;20801;-65
2023/04/16 01:20:52;;;;;;;7.03;3.60;;;;;;;;;;5089518;28;20514;-66
2023/04/16 01:23:19;;;;;;;7.20;4.17;;;;;;;;;;5090898;28;20903;-66
2023/04/16 01:25:46;;;;;;;5.27;3.43;;;;;;;;;;5090857;28;20501;-66
2023/04/16 01:28:15;;;;;;;3.70;2.77;;;;;;;;;;5090677;28;20887;-66
2023/04/16 01:30:42;;;;;;;6.33;3.73;;;;;;;;;;5089986;28;20458;-65
2023/04/16 01:33:11;;;;;;;4.10;3.20;;;;;;;;;;5090742;28;20497;-64
2023/04/16 01:35:39;;;;;;;3.93;2.77;;;;;;;;;;5091016;28;20592;-67
2023/04/16 01:38:08;;;;;;;6.87;3.27;;;;;;;;;;5090287;28;20449;-66
2023/04/16 01:40:35;;;;;;;4.10;2.83;;;;;;;;;;5087931;28;20475;-66
2023/04/16 01:43:02;;;;;;;5.17;3.03;;;;;;;;;;5091765;28;20457;-66
2023/04/16 01:45:31;;;;;;;4.30;2.93;;;;;;;;;;5092038;28;20459;-65
2023/04/16 01:47:58;;;;;;;4.00;3.03;;;;;;;;;;5092398;28;20448;-66
2023/04/16 01:50:25;;;;;;;4.73;3.00;;;;;;;;;;5092777;28;20460;-66
2023/04/16 01:52:52;;;;;;;4.00;2.53;;;;;;;;;;5081551;28;20475;-65
2023/04/16 01:55:21;;;;;;;3.90;2.50;;;;;;;;;;5092871;28;20468;-65
2023/04/16 01:57:48;;;;;;;4.37;3.27;;;;;;;;;;5092057;28;20452;-65
2023/04/16 02:00:15;;;;;;;4.10;2.50;;;;;;;;;;5092998;28;20445;-66
2023/04/16 02:02:42;;;;;;;4.63;2.93;;;;;;;;;;5091673;28;20448;-66
2023/04/16 02:05:09;;;;;;;3.77;2.40;;;;;;;;;;5092249;28;20464;-65
2023/04/16 02:07:37;;;;;;;4.03;3.00;;;;;;;;;;5092721;28;20444;-66
2023/04/16 02:10:04;;;;;;;4.43;2.50;;;;;;;;;;5091860;28;20440;-65
2023/04/16 02:12:32;;;;;;;3.50;2.60;;;;;;;;;;5091937;28;20575;-65
2023/04/16 02:15:00;;;;;;;3.80;2.07;;;;;;;;;;5091612;28;20894;-65
2023/04/16 02:17:27;;;;;;;4.10;2.57;;;;;;;;;;5092350;28;20452;-65
2023/04/16 02:19:55;;;;;;;4.50;3.17;;;;;;;;;;5091130;28;20491;-65
2023/04/16 02:22:22;;;;;;;5.37;3.07;;;;;;;;;;5091750;28;20892;-65
2023/04/16 02:24:50;;;;;;;4.30;2.37;;;;;;;;;;5091694;28;20488;-65
2023/04/16 02:27:17;;;;;;;4.27;2.80;;;;;;;;;;5092133;28;20449;-65
2023/04/16 02:29:45;;;;;;;4.50;2.90;;;;;;;;;;5091401;28;20455;-65
2023/04/16 02:32:12;;;;;;;4.70;3.03;;;;;;;;;;5091563;28;20480;-65
2023/04/16 02:34:40;;;;;;;6.70;4.10;;;;;;;;;;5092304;28;20447;-66
2023/04/16 02:37:07;;;;;;;7.07;4.20;;;;;;;;;;5092325;28;20448;-65
2023/04/16 02:39:34;;;;;;;3.30;2.23;;;;;;;;;;5091461;28;20934;-65
2023/04/16 02:42:01;;;;;;;4.60;2.67;;;;;;;;;;5091259;28;20452;-66
2023/04/16 02:44:28;;;;;;;5.60;2.30;;;;;;;;;;5091820;28;20452;-66
2023/04/16 02:46:57;;;;;;;2.90;2.50;;;;;;;;;;5091615;28;20460;-65
2023/04/16 02:49:24;;;;;;;4.13;2.70;;;;;;;;;;5091502;28;20816;-65
2023/04/16 02:51:51;;;;;;;2.70;1.93;;;;;;;;;;5091005;28;20844;-66
2023/04/16 02:54:18;;;;;;;5.50;3.70;;;;;;;;;;5091649;28;20444;-66
2023/04/16 02:56:45;;;;;;;3.90;0.70;;;;;;;;;;5091411;28;20452;-65
2023/04/16 02:59:12;;;;;;;5.00;2.50;;;;;;;;;;5091527;28;20456;-66
2023/04/16 03:01:39;;;;;;;5.10;3.13;;;;;;;;;;5091286;28;20452;-65
2023/04/16 03:04:08;;;;;;;3.70;2.70;;;;;;;;;;5091664;28;20436;-66
2023/04/16 03:06:35;;;;;;;3.73;2.30;;;;;;;;;;5091845;28;20445;-66
2023/04/16 03:09:02;;;;;;;2.53;2.10;;;;;;;;;;5090684;28;20448;-65
2023/04/16 03:11:29;;;;;;;1.93;1.53;;;;;;;;;;5091102;28;20453;-66
2023/04/16 03:13:56;;;;;;;3.57;1.90;;;;;;;;;;5090919;28;20457;-66
2023/04/16 03:16:23;;;;;;;2.50;2.20;;;;;;;;;;5091517;28;20445;-65
2023/04/16 03:18:50;;;;;;;1.40;1.30;;;;;;;;;;5090890;28;20449;-65
2023/04/16 03:21:19;;;;;;;3.00;1.80;;;;;;;;;;5090889;28;20480;-65
2023/04/16 03:23:46;;;;;;;3.60;2.00;;;;;;;;;;5091004;28;20448;-65
2023/04/16 03:26:13;;;;;;;1.87;1.77;;;;;;;;;;5091255;28;20444;-65
2023/04/16 03:28:40;;;;;;;3.57;1.23;;;;;;;;;;5090775;28;20440;-69
2023/04/16 03:31:07;;;;;;;2.30;1.67;;;;;;;;;;5090843;28;20444;-66
2023/04/16 03:33:35;;;;;;;4.23;2.73;;;;;;;;;;5091546;28;20503;-66
2023/04/16 03:36:02;;;;;;;3.43;2.50;;;;;;;;;;5090708;28;20448;-66
2023/04/16 03:38:30;;;;;;;4.47;3.20;;;;;;;;;;5090833;28;20447;-66
2023/04/16 03:40:57;;;;;;;2.17;1.97;;;;;;;;;;5089576;28;20448;-65
2023/04/16 03:43:24;;;;;;;2.47;1.50;;;;;;;;;;5091173;28;20449;-65
2023/04/16 03:45:52;;;;;;;3.60;2.60;;;;;;;;;;5090091;28;20445;-66
2023/04/16 03:48:19;;;;;;;2.30;1.40;;;;;;;;;;5090821;28;20959;-65
2023/04/16 03:50:47;;;;;;;2.70;1.87;;;;;;;;;;5089563;28;20453;-65
2023/04/16 03:53:14;;;;;;;3.27;2.23;;;;;;;;;;5090998;28;20525;-65
2023/04/16 03:55:43;;;;;;;3.30;2.40;;;;;;;;;;5090165;28;20869;-66
2023/04/16 03:58:10;;;;;;;2.93;1.63;;;;;;;;;;5091099;28;20444;-67
2023/04/16 04:00:37;;;;;;;2.70;1.83;;;;;;;;;;5090841;28;20455;-65
2023/04/16 04:03:04;;;;;;;2.70;1.57;;;;;;;;;;5090103;28;20459;-66
2023/04/16 04:05:31;;;;;;;4.33;2.63;;;;;;;;;;5091080;28;20448;-66
2023/04/16 04:07:58;;;;;;;4.83;3.77;;;;;;;;;;5090217;28;20452;-66
2023/04/16 04:10:26;;;;;;;2.50;1.87;;;;;;;;;;5090445;28;20874;-67
2023/04/16 04:12:54;;;;;;;4.47;2.83;;;;;;;;;;5090187;28;21009;-66
2023/04/16 04:15:21;;;;;;;4.00;1.90;;;;;;;;;;5090832;28;20440;-66
2023/04/16 04:17:48;;;;;;;1.80;1.70;;;;;;;;;;5090394;28;20557;-66
2023/04/16 04:20:15;;;;;;;3.33;2.60;;;;;;;;;;5090249;28;20826;-66
2023/04/16 04:22:43;;;;;;;7.57;3.13;;;;;;;;;;5090069;28;20449;-67
2023/04/16 04:25:10;;;;;;;2.40;1.70;;;;;;;;;;5090875;28;20455;-67
2023/04/16 04:27:38;;;;;;;2.60;2.00;;;;;;;;;;5090809;28;20501;-67
2023/04/16 04:30:07;;;;;;;4.00;2.53;;;;;;;;;;5090329;28;20861;-69
2023/04/16 04:32:34;;;;;;;2.50;2.30;;;;;;;;;;5090380;28;20487;-67
2023/04/16 04:35:02;;;;;;;3.93;2.53;;;;;;;;;;5090281;28;20798;-66
2023/04/16 04:37:29;;;;;;;5.20;1.83;;;;;;;;;;5090683;28;20474;-67
2023/04/16 04:39:56;;;;;;;3.30;1.93;;;;;;;;;;5089573;28;20445;-66
2023/04/16 04:42:23;;;;;;;3.13;1.63;;;;;;;;;;5090426;28;20815;-66
2023/04/16 04:44:50;;;;;;;2.10;1.30;;;;;;;;;;5090189;28;20532;-66
2023/04/16 04:47:19;;;;;;;2.80;1.80;;;;;;;;;;5090405;28;20927;-66
2023/04/16 04:49:46;;;;;;;2.73;1.40;;;;;;;;;;5089966;28;20513;-66
2023/04/16 04:52:13;;;;;;;3.83;1.53;;;;;;;;;;5092221;28;20479;-67
2023/04/16 04:54:40;;;;;;;2.60;2.07;;;;;;;;;;5093426;28;20448;-72
2023/04/16 04:57:08;;;;;;;2.90;1.97;;;;;;;;;;5094202;28;20440;-67
2023/04/16 04:59:35;;;;;;;4.60;2.40;;;;;;;;;;5094458;28;20532;-65
2023/04/16 05:02:02;;;;;;;2.00;1.57;;;;;;;;;;5093110;28;20471;-65
2023/04/16 05:04:31;;;;;;;3.40;2.10;;;;;;;;;;5094140;28;20475;-66
2023/04/16 05:06:58;;;;;;;3.90;2.70;;;;;;;;;;5093055;28;21004;-66
2023/04/16 05:09:25;;;;;;;3.53;3.23;;;;;;;;;;5094328;28;20444;-65
2023/04/16 05:11:52;;;;;;;2.50;1.40;;;;;;;;;;5092755;28;20456;-65
2023/04/16 05:14:19;;;;;;;2.97;1.43;;;;;;;;;;5093625;28;21010;-65
2023/04/16 05:16:46;;;;;;;3.40;2.60;;;;;;;;;;5093363;28;20444;-65
2023/04/16 05:19:13;;;;;;;2.30;1.70;;;;;;;;;;5093955;28;20456;-65
2023/04/16 05:21:42;;;;;;;4.23;1.67;;;;;;;;;;5092851;28;21005;-68
2023/04/16 05:24:09;;;;;;;1.57;1.47;;;;;;;;;;5093854;28;20444;-65
2023/04/16 05:26:36;;;;;;;3.77;1.50;;;;;;;;;;5093726;28;20448;-65
2023/04/16 05:29:03;;;;;;;4.30;1.33;;;;;;;;;;5093362;28;20448;-65
2023/04/16 05:31:30;;;;;;;3.70;3.27;;;;;;;;;;5093073;28;20459;-65
2023/04/16 05:33:57;;;;;;;2.87;1.90;;;;;;;;;;5092967;28;20843;-65
2023/04/16 05:36:24;;;;;;;2.90;2.20;;;;;;;;;;5079675;28;20463;-65
2023/04/16 05:38:53;;;;;;;2.63;1.70;;;;;;;;;;5093171;28;20448;-65
2023/04/16 05:41:20;;;;;;;3.40;2.63;;;;;;;;;;5093067;28;20449;-65
2023/04/16 05:43:47;;;;;;;2.93;2.57;;;;;;;;;;5092878;28;20457;-65
2023/04/16 05:46:14;;;;;;;5.70;2.40;;;;;;;;;;5093236;28;20495;-65
2023/04/16 05:48:41;;;;;;;2.67;2.37;;;;;;;;;;5092759;28;20448;-65
2023/04/16 05:51:08;;;;;;;5.00;3.23;;;;;;;;;;5092356;28;20448;-65
2023/04/16 05:53:36;;;;;;;5.60;3.23;;;;;;;;;;5093016;28;20990;-65
2023/04/16 05:56:04;;;;;;;2.60;1.33;;;;;;;;;;5092205;28;20448;-65
2023/04/16 05:58:31;;;;;;;4.47;2.73;;;;;;;;;;5093111;28;20447;-65
2023/04/16 06:00:58;;;;;;;4.43;2.20;;;;;;;;;;5091808;28;20451;-66
2023/04/16 06:03:25;;;;;;;8.67;5.20;;;;;;;;;;5091944;28;20452;-65
2023/04/16 06:05:53;;;;;;;6.53;4.03;;;;;;;;;;5092196;28;20448;-65
2023/04/16 06:08:20;;;;;;;3.53;2.50;;;;;;;;;;5092546;28;20444;-65
2023/04/16 06:10:47;;;;;;;5.10;3.87;;;;;;;;;;5091797;28;20449;-65
2023/04/16 06:13:16;;;;;;;2.80;2.10;;;;;;;;;;5092813;28;20481;-65
2023/04/16 06:15:43;;;;;;;6.83;4.50;;;;;;;;;;5092096;28;20444;-65
2023/04/16 06:18:10;;;;;;;4.83;4.07;;;;;;;;;;5092524;28;20936;-66
2023/04/16 06:20:37;;;;;;;3.83;3.10;;;;;;;;;;5092007;28;20476;-65
2023/04/16 06:23:04;;;;;;;9.90;4.23;;;;;;;;;;5092005;28;20455;-65
2023/04/16 06:25:31;;;;;;;10.47;4.87;;;;;;;;;;5092567;28;20452;-65
2023/04/16 06:27:58;;;;;;;8.47;4.70;;;;;;;;;;5091959;28;20457;-66
2023/04/16 06:30:27;;;;;;;7.23;4.10;;;;;;;;;;5091869;28;20958;-65
2023/04/16 06:32:54;;;;;;;9.77;5.80;;;;;;;;;;5091968;28;20480;-65
2023/04/16 06:35:21;;;;;;;5.13;3.83;;;;;;;;;;5090421;28;20451;-66
2023/04/16 06:37:48;;;;;;;4.77;3.30;;;;;;;;;;5091753;28;20456;-65
2023/04/16 06:40:15;;;;;;;5.33;3.80;;;;;;;;;;5091754;28;20451;-65
2023/04/16 06:42:43;;;;;;;5.90;2.93;;;;;;;;;;5091797;28;20448;-65
2023/04/16 06:45:10;;;;;;;6.10;4.60;;;;;;;;;;5091888;28;20459;-66
2023/04/16 06:47:38;;;;;;;8.17;4.83;;;;;;;;;;5092326;28;20451;-65
2023/04/16 06:50:06;;;;;;;6.47;3.90;;;;;;;;;;5091966;28;20456;-65
2023/04/16 06:52:33;;;;;;;6.20;4.30;;;;;;;;;;5091508;28;20440;-65
2023/04/16 06:55:00;;;;;;;11.30;4.83;;;;;;;;;;5091720;28;20460;-65
2023/04/16 06:57:27;;;;;;;4.13;3.43;;;;;;;;;;5091864;28;20445;-65
2023/04/16 06:59:54;;;;;;;6.90;4.50;;;;;;;;;;5090717;28;20451;-65
2023/04/16 07:02:21;;;;;;;8.03;4.00;;;;;;;;;;5091352;28;20931;-65
2023/04/16 07:04:51;;;;;;;9.93;4.97;;;;;;;;;;5091226;28;20456;-65
2023/04/16 07:07:18;;;;;;;4.90;3.07;;;;;;;;;;5091816;28;20543;-65
2023/04/16 07:09:45;;;;;;;10.33;4.73;;;;;;;;;;5091127;28;20564;-66
2023/04/16 07:12:12;;;;;;;8.57;5.47;;;;;;;;;;5091212;28;20445;-65
2023/04/16 07:14:39;;;;;;;7.07;5.37;;;;;;;;;;5091388;28;20487;-65
2023/04/16 07:17:06;;;;;;;7.30;4.23;;;;;;;;;;5091337;28;20498;-65
2023/04/16 07:19:34;;;;;;;8.33;5.10;;;;;;;;;;5091272;28;20959;-65
2023/04/16 07:22:02;;;;;;;11.57;7.20;;;;;;;;;;5084184;28;20486;-65
2023/04/16 07:24:30;;;;;;;13.00;5.20;;;;;;;;;;5091368;28;21258;-65
2023/04/16 07:26:57;;;;;;;6.23;4.43;;;;;;;;;;5091117;28;20456;-65
2023/04/16 07:29:24;;;;;;;7.67;4.23;;;;;;;;;;5091407;28;20452;-65
2023/04/16 07:31:51;;;;;;;7.70;4.50;;;;;;;;;;5090194;28;20453;-65
2023/04/16 07:34:18;;;;;;;7.93;4.00;;;;;;;;;;5091266;28;20491;-65
2023/04/16 07:36:45;;;;;;;8.80;4.30;;;;;;;;;;5090754;28;20444;-65
2023/04/16 07:39:13;;;;;;;6.43;4.87;;;;;;;;;;5090712;28;20456;-66
2023/04/16 07:41:41;;;;;;;9.77;6.27;;;;;;;;;;5090064;28;20448;-69
2023/04/16 07:44:08;;;;;;;7.20;4.73;;;;;;;;;;5091518;28;20451;-66
2023/04/16 07:46:35;;;;;;;8.50;3.80;;;;;;;;;;5091259;28;20794;-66
2023/04/16 07:49:02;;;;;;;7.87;4.90;;;;;;;;;;5090643;28;20452;-66
2023/04/16 07:51:30;;;;;;;10.40;4.23;;;;;;;;;;5090647;28;20460;-67
2023/04/16 07:53:57;;;;;;;5.50;4.47;;;;;;;;;;5090673;28;20563;-66
2023/04/16 07:56:26;;;;;;;8.80;5.77;;;;;;;;;;5092691;28;20441;-66
2023/04/16 07:58:53;;;;;;;6.63;4.33;;;;;;;;;;5094367;28;20540;-66
2023/04/16 08:01:20;;;;;;;8.53;5.20;;;;;;;;;;5090661;28;20447;-67
2023/04/16 08:03:47;;;;;;;5.90;4.70;;;;;;;;;;5090240;28;20453;-66
2023/04/16 08:06:14;;;;;;;6.17;3.90;;;;;;;;;;5090892;28;20815;-66
2023/04/16 08:08:41;;;;;;;5.33;2.47;;;;;;;;;;5090253;28;20478;-67
2023/04/16 08:11:09;;;;;;;6.70;3.67;;;;;;;;;;5090931;28;20821;-66
2023/04/16 08:13:37;;;;;;;10.40;5.37;;;;;;;;;;5090895;28;20834;-66
2023/04/16 08:16:05;;;;;;;5.87;4.10;;;;;;;;;;5090810;28;20444;-66
2023/04/16 08:18:32;;;;;;;8.00;4.43;;;;;;;;;;5090654;28;20444;-66
2023/04/16 08:20:59;;;;;;;8.40;4.67;;;;;;;;;;5090030;28;20479;-66
2023/04/16 08:23:26;;;;;;;6.27;3.97;;;;;;;;;;5090578;28;20448;-66
2023/04/16 08:25:53;;;;;;;7.20;4.33;;;;;;;;;;5090920;28;20946;-66
2023/04/16 08:28:20;;;;;;;6.67;4.30;;;;;;;;;;5094688;28;20444;-66
2023/04/16 08:30:48;;;;;;;5.47;4.63;;;;;;;;;;5093331;28;20455;-66
2023/04/16 08:33:16;;;;;;;4.30;3.60;;;;;;;;;;5094819;28;20448;-66
2023/04/16 08:35:43;;;;;;;8.40;4.33;;;;;;;;;;5093916;28;20452;-66
2023/04/16 08:38:10;;;;;;;9.23;3.77;;;;;;;;;;5094628;28;20813;-68
2023/04/16 08:40:39;;;;;;;6.97;5.03;;;;;;;;;;5094101;28;20440;-66
2023/04/16 08:43:10;;;;;;;7.27;4.40;;;;;;;;;;5094674;28;20436;-66
2023/04/16 08:45:38;;;;;;;6.77;4.27;;;;;;;;;;5094844;28;20493;-66
2023/04/16 08:48:07;;;;;;;9.23;4.00;;;;;;;;;;5094786;28;20818;-67
2023/04/16 08:50:35;;;;;;;13.17;6.40;;;;;;;;;;5093849;28;20932;-66
2023/04/16 08:53:04;;;;;;;6.80;3.67;;;;;;;;;;5093674;28;20444;-66
2023/04/16 08:55:37;;;;;;;6.23;3.30;;;;;;;;;;5094181;28;20512;-66
2023/04/16 08:58:06;;;;;;;5.50;4.03;;;;;;;;;;5093892;28;20490;-66
2023/04/16 09:00:34;;;;;;;4.90;3.60;;;;;;;;;;5093455;28;20490;-66
2023/04/16 09:03:01;;;;;;;6.10;4.30;;;;;;;;;;5083409;28;20463;-66
2023/04/16 09:05:30;;;;;;;6.53;3.80;;;;;;;;;;5094106;28;20498;-68
2023/04/16 09:07:57;;;;;;;6.50;4.40;;;;;;;;;;5093357;28;20451;-66
2023/04/16 09:10:26;;;;;;;7.33;3.50;;;;;;;;;;5093267;28;20943;-66
2023/04/16 09:12:55;;;;;;;9.03;4.27;;;;;;;;;;5093417;28;20452;-66
2023/04/16 09:15:24;;;;;;;8.77;3.53;;;;;;;;;;5094019;28;20486;-66
2023/04/16 09:17:51;;;;;;;6.63;3.33;;;;;;;;;;5092198;28;20440;-66
2023/04/16 09:20:18;;;;;;;7.47;3.90;;;;;;;;;;5093376;28;20567;-67
2023/04/16 09:22:47;;;;;;;7.00;4.97;;;;;;;;;;5093172;28;20444;-66
2023/04/16 09:25:15;;;;;;;6.43;4.17;;;;;;;;;;5093768;28;20502;-67
2023/04/16 09:27:42;;;;;;;6.37;3.47;;;;;;;;;;5092984;28;20804;-67
2023/04/16 09:30:22;;;;;;;4.67;2.87;;;;;;;;;;5093207;28;20453;-66
2023/04/16 09:32:49;;;;;;;4.43;3.10;;;;;;;;;;5092137;28;20535;-67
2023/04/16 09:35:17;;;;;;;6.40;3.60;;;;;;;;;;5093587;28;20522;-67
2023/04/16 09:37:44;;;;;;;6.30;3.67;;;;;;;;;;5091395;28;20449;-67
2023/04/16 09:40:16;;;;;;;5.47;3.37;;;;;;;;;;5092781;28;20452;-67
2023/04/16 09:42:43;;;;;;;5.60;3.10;;;;;;;;;;5092359;28;20433;-66
2023/04/16 09:45:10;;;;;;;6.70;3.73;;;;;;;;;;5093513;28;20819;-69
2023/04/16 09:47:41;;;;;;;4.97;3.80;;;;;;;;;;5093434;28;20448;-66
2023/04/16 09:50:08;;;;;;;6.33;4.17;;;;;;;;;;5083108;28;20924;-66
2023/04/16 09:52:37;;;;;;;4.97;3.20;;;;;;;;;;5092984;28;20445;-66
2023/04/16 09:55:05;;;;;;;3.93;3.20;;;;;;;;;;5092878;28;20824;-66
2023/04/16 09:57:33;;;;;;;3.90;2.23;;;;;;;;;;5092699;28;20541;-67
2023/04/16 10:00:02;;;;;;;8.53;3.37;;;;;;;;;;5092274;28;20639;-67
2023/04/16 10:02:29;;;;;;;4.50;3.47;;;;;;;;;;5092776;28;20494;-67
2023/04/16 10:04:57;;;;;;;4.20;3.10;;;;;;;;;;5092381;28;20444;-66
2023/04/16 10:07:28;;;;;;;3.47;2.80;;;;;;;;;;5092651;28;20452;-67
2023/04/16 10:09:55;;;;;;;12.17;3.43;;;;;;;;;;5091501;28;20449;-67
2023/04/16 10:12:22;;;;;;;6.17;2.50;;;;;;;;;;5092693;28;20452;-67
2023/04/16 10:14:51;;;;;;;7.90;3.77;;;;;;;;;;5091879;28;20476;-66
2023/04/16 10:17:19;;;;;;;5.10;3.50;;;;;;;;;;5081194;28;20464;-66
2023/04/16 10:19:46;;;;;;;4.57;2.80;;;;;;;;;;5091387;28;20476;-67
2023/04/16 10:22:13;;;;;;;5.27;4.40;;;;;;;;;;5091896;28;20448;-67
2023/04/16 10:24:41;;;;;;;5.67;3.83;;;;;;;;;;5092105;28;20445;-72
2023/04/16 10:27:08;;;;;;;3.87;2.60;;;;;;;;;;5092592;28;20958;-67
2023/04/16 10:29:36;;;;;;;6.50;4.03;;;;;;;;;;5092018;28;20449;-67
2023/04/16 10:32:04;;;;;;;5.80;3.60;;;;;;;;;;5092011;28;20445;-67
2023/04/16 10:34:32;;;;;;;4.40;3.00;;;;;;;;;;5092493;28;20830;-67
2023/04/16 10:36:59;;;;;;;6.90;4.90;;;;;;;;;;5091627;28;20445;-67
2023/04/16 10:39:28;;;;;;;7.50;3.70;;;;;;;;;;5092167;28;20452;-67
2023/04/16 10:42:07;;;;;;;5.30;3.13;;;;;;;;;;5091858;28;20455;-67
2023/04/16 10:44:34;;;;;;;6.47;3.33;;;;;;;;;;5091802;28;20448;-67
2023/04/16 10:47:02;;;;;;;8.00;2.80;;;;;;;;;;5091910;28;20453;-67
2023/04/16 10:49:30;;;;;;;4.00;3.20;;;;;;;;;;5091488;28;20456;-68
2023/04/16 10:51:58;;;;;;;6.43;2.87;;;;;;;;;;5089735;28;20452;-67
2023/04/16 10:54:26;;;;;;;3.87;2.97;;;;;;;;;;5091968;28;20472;-67
2023/04/16 10:56:53;;;;;;;5.30;3.43;;;;;;;;;;5091350;28;20497;-66
2023/04/16 10:59:21;;;;;;;6.00;3.17;;;;;;;;;;5092189;28;20792;-65
2023/04/16 11:01:49;;;;;;;4.20;3.00;;;;;;;;;;5090766;28;20445;-67
2023/04/16 11:04:37;;;;;;;8.50;3.77;;;;;;;;;;5092013;28;20448;-65
2023/04/16 11:07:05;;;;;;;9.27;4.00;;;;;;;;;;5090938;28;20810;-71
2023/04/16 11:09:48;;;;;;;6.07;3.13;;;;;;;;;;5091487;28;20814;-66
2023/04/16 11:12:17;;;;;;;6.73;3.57;;;;;;;;;;5089391;28;20509;-67
2023/04/16 11:14:47;;;;;;;8.23;2.37;;;;;;;;;;5091214;28;20831;-66
2023/04/16 11:17:14;;;;;;;4.30;3.03;;;;;;;;;;5088539;28;20452;-66
2023/04/16 11:19:43;;;;;;;3.57;2.13;;;;;;;;;;5090700;28;20492;-66
2023/04/16 11:22:12;;;;;;;7.10;3.93;;;;;;;;;;5091681;28;20449;-70
2023/04/16 11:24:40;;;;;;;3.70;2.43;;;;;;;;;;5091938;28;20813;-67
2023/04/16 11:27:07;;;;;;;3.43;3.13;;;;;;;;;;5091529;28;20502;-67
2023/04/16 11:29:34;;;;;;;3.87;2.27;;;;;;;;;;5091091;28;20449;-67
2023/04/16 11:32:02;;;;;;;2.20;2.00;;;;;;;;;;5090707;28;20484;-67
2023/04/16 11:34:29;;;;;;;4.53;2.67;;;;;;;;;;5091275;28;20484;-68
2023/04/16 11:36:57;;;;;;;4.53;3.50;;;;;;;;;;5091043;28;20498;-66
2023/04/16 11:39:24;;;;;;;3.40;1.97;;;;;;;;;;5090659;28;20797;-67
2023/04/16 11:41:52;;;;;;;3.77;3.33;;;;;;;;;;5090831;28;20445;-67
2023/04/16 11:44:23;;;;;;;4.03;2.00;;;;;;;;;;5091385;28;20816;-66
2023/04/16 11:46:50;;;;;;;3.27;2.10;;;;;;;;;;5090755;28;20448;-66
2023/04/16 11:49:18;;;;;;;3.40;2.57;;;;;;;;;;5091221;28;20810;-66
2023/04/16 11:51:46;;;;;;;2.57;2.33;;;;;;;;;;5090128;28;20448;-66
2023/04/16 11:54:20;;;;;;;3.90;2.07;;;;;;;;;;5091031;28;20444;-67
2023/04/16 11:56:49;;;;;;;2.33;1.50;;;;;;;;;;5090870;28;20435;-67
2023/04/16 11:59:16;;;;;;;2.50;1.63;;;;;;;;;;5091306;28;20501;-66
2023/04/16 12:01:46;;;;;;;3.90;2.10;;;;;;;;;;5089025;28;20973;-63
2023/04/16 12:04:14;;;;;;;3.30;1.77;;;;;;;;;;5091050;28;20444;-66
2023/04/16 12:06:41;;;;;;;3.83;2.43;;;;;;;;;;5090335;28;20931;-68
2023/04/16 12:09:25;;;;;;;4.17;2.03;;;;;;;;;;5087348;28;20453;-67
2023/04/16 12:11:53;;;;;;;1.53;1.27;;;;;;;;;;5087637;28;20939;-67
2023/04/16 12:14:20;;;;;;;2.30;1.27;;;;;;;;;;5088651;28;20444;-67
2023/04/16 12:16:47;;;;;;;2.83;1.63;;;;;;;;;;5087277;28;20476;-66
2023/04/16 12:19:14;;;;;;;3.27;1.60;;;;;;;;;;5087788;28;20456;-67
2023/04/16 12:21:42;;;;;;;1.73;1.20;;;;;;;;;;5087644;28;20468;-66
2023/04/16 12:24:11;;;;;;;1.53;1.20;;;;;;;;;;5087804;28;20445;-66
2023/04/16 12:26:44;;;;;;;2.30;2.10;;;;;;;;;;5088639;28;20445;-67
2023/04/16 12:29:21;;;;;;;2.23;1.50;;;;;;;;;;5085828;28;20502;-67
2023/04/16 12:31:49;;;;;;;2.30;1.50;;;;;;;;;;5087406;28;20498;-66
2023/04/16 12:34:17;;;;;;;1.00;0.80;;;;;;;;;;5087602;28;20865;-67
2023/04/16 12:36:44;;;;;;;2.07;1.43;;;;;;;;;;5075004;28;20447;-67
2023/04/16 12:39:12;;;;;;;5.20;2.43;;;;;;;;;;5087461;28;20449;-67
2023/04/16 12:41:40;;;;;;;2.57;1.50;;;;;;;;;;5088207;28;20452;-67
2023/04/16 12:44:11;;;;;;;1.70;1.40;;;;;;;;;;5087777;28;20449;-66
2023/04/16 12:46:39;;;;;;;1.43;1.07;;;;;;;;;;5087866;28;20531;-67
2023/04/16 12:49:06;;;;;;;2.70;1.57;;;;;;;;;;5087955;28;20456;-67
2023/04/16 12:51:33;;;;;;;1.80;1.27;;;;;;;;;;5088180;28;20448;-66
2023/04/16 12:54:00;;;;;;;4.10;2.67;;;;;;;;;;5086767;28;20710;-67
2023/04/16 12:56:28;;;;;;;1.43;1.20;;;;;;;;;;5085544;28;20476;-67
2023/04/16 12:58:55;;;;;;;1.53;1.37;;;;;;;;;;5086930;28;20448;-66
2023/04/16 13:01:24;;;;;;;3.07;1.33;;;;;;;;;;5088403;28;20476;-67
2023/04/16 13:03:51;;;;;;;1.27;1.07;;;;;;;;;;5087453;28;20455;-66
2023/04/16 13:06:18;;;;;;;3.17;1.40;;;;;;;;;;5088093;28;20459;-67
2023/04/16 13:08:45;;;;;;;2.13;2.03;;;;;;;;;;5086388;28;20452;-66
2023/04/16 13:11:13;;;;;;;6.03;1.90;;;;;;;;;;5088105;28;20448;-67
2023/04/16 13:13:40;;;;;;;5.50;1.40;;;;;;;;;;5091336;28;20497;-69
2023/04/16 13:16:07;;;;;;;2.40;1.80;;;;;;;;;;5091758;28;20480;-67
2023/04/16 13:18:36;;;;;;;2.93;2.37;;;;;;;;;;5090622;28;20887;-66
2023/04/16 13:21:04;;;;;;;2.37;1.63;;;;;;;;;;5090515;28;20537;-66
2023/04/16 13:23:31;;;;;;;4.10;2.30;;;;;;;;;;5091198;28;20452;-67
2023/04/16 13:25:58;;;;;;;4.47;2.60;;;;;;;;;;5090785;28;20452;-66
2023/04/16 13:28:25;;;;;;;3.97;2.53;;;;;;;;;;5088972;28;20456;-68
2023/04/16 13:30:53;;;;;;;2.17;1.60;;;;;;;;;;5090165;28;20455;-68
2023/04/16 13:33:20;;;;;;;2.47;1.90;;;;;;;;;;5090572;28;20452;-66
2023/04/16 13:35:49;;;;;;;2.13;1.57;;;;;;;;;;5090022;28;20484;-68
2023/04/16 13:38:16;;;;;;;1.53;1.00;;;;;;;;;;5090318;28;20448;-67
2023/04/16 13:40:43;;;;;;;2.43;1.70;;;;;;;;;;5089825;28;20455;-66
2023/04/16 13:43:10;;;;;;;2.07;1.47;;;;;;;;;;5091081;28;20452;-69
2023/04/16 13:45:38;;;;;;;1.83;1.23;;;;;;;;;;5090439;28;20472;-67
2023/04/16 13:48:05;;;;;;;2.60;2.00;;;;;;;;;;5090176;28;21002;-67
2023/04/16 13:50:33;;;;;;;2.20;1.30;;;;;;;;;;5090857;28;20471;-67
2023/04/16 13:53:02;;;;;;;4.17;2.97;;;;;;;;;;5090031;28;20449;-67
2023/04/16 13:55:31;;;;;;;1.27;1.00;;;;;;;;;;5090250;28;20490;-67
2023/04/16 13:57:58;;;;;;;2.40;1.47;;;;;;;;;;5089068;28;20444;-67
2023/04/16 14:00:26;;;;;;;2.53;1.97;;;;;;;;;;5090570;28;20460;-68
2023/04/16 14:02:53;;;;;;;2.20;1.50;;;;;;;;;;5089513;28;20445;-68
2023/04/16 14:05:21;;;;;;;4.10;1.50;;;;;;;;;;5085403;28;20479;-67
2023/04/16 14:07:49;;;;;;;4.33;2.90;;;;;;;;;;5088900;28;20958;-66
2023/04/16 14:10:17;;;;;;;6.10;2.00;;;;;;;;;;5090286;28;20452;-67
2023/04/16 14:12:44;;;;;;;3.77;2.80;;;;;;;;;;5089895;28;20448;-67
2023/04/16 14:15:13;;;;;;;4.43;2.37;;;;;;;;;;5086076;28;20480;-67
2023/04/16 14:17:41;;;;;;;1.70;0.93;;;;;;;;;;5089416;28;21030;-70
2023/04/16 14:20:09;;;;;;;3.93;2.63;;;;;;;;;;5089812;28;21162;-67
2023/04/16 14:22:36;;;;;;;2.40;1.73;;;;;;;;;;5089939;28;20456;-67
2023/04/16 14:25:03;;;;;;;2.10;1.40;;;;;;;;;;5088570;28;20535;-67
2023/04/16 14:27:32;;;;;;;3.13;2.03;;;;;;;;;;5088252;28;20533;-67
2023/04/16 14:30:00;;;;;;;3.50;2.00;;;;;;;;;;5089013;28;20474;-68
2023/04/16 14:32:27;;;;;;;2.77;2.40;;;;;;;;;;5090100;28;20452;-67
2023/04/16 14:34:54;;;;;;;3.90;2.43;;;;;;;;;;5088939;28;20461;-67
2023/04/16 14:37:21;;;;;;;5.43;3.03;;;;;;;;;;5090016;28;20456;-67
2023/04/16 14:39:48;;;;;;;3.33;1.60;;;;;;;;;;5088289;28;20459;-67
2023/04/16 14:42:15;;;;;;;4.13;2.40;;;;;;;;;;5089631;28;20457;-67
2023/04/16 14:44:44;;;;;;;2.73;2.03;;;;;;;;;;5088861;28;20821;-67
2023/04/16 14:47:11;;;;;;;7.20;2.67;;;;;;;;;;5089834;28;20452;-68